Bramon, Sweden

8:24 AM CEST on September 17, 2014 (GMT +0200)
Bydalen | Change Station
CLOSE
Current Station
Personal Weather Station
Location: Sundsvall, VASTERNORRLAND
Elevation: 290 ft
Nearby Weather Stations

Elev 290 ft 62.42 °N, 17.33 °E | Updated 4 seconds ago

Fog
Fog
48.7 °F
Feels Like 49 °F
N
0.0
Wind Variable Wind from North
Gusts 0.0 mph

Today
High -- | Low -- °F
--% Chance of Precip.
Yesterday
High -- | Low -- °F
Precip. -- in
6:18 AM 7:06 PM
Last Quarter, 39% visible
Pressure 30.30 in
Visibility 0.2 miles
Clouds Overcast 100 ft
Windchill 49 °F
Dew Point 48 °F
Humidity 99%
Rainfall 0.00 in
Snow Depth Not available.
UV 0 out of 12
Pollen Not available.
Air Quality Not available.
Flu Activity Not available.
METAR ESNN 170620Z 30004KT 260V320 0350 R16/0650N R34/0600N FG OVC001 09/09 Q1026

More Conditions Fewer Conditions

Pressure 30.30 in
Visibility 0.2 miles
Clouds Overcast 100 ft
Windchill 49 °F
Dew Point 48 °F
Humidity 99%
Rainfall 0.00 in
Snow Depth Not available.
UV 0 out of 12
Pollen Not available.
Air Quality Not available.
Flu Activity Not available.
METAR ESNN 170620Z 30004KT 260V320 0350 R16/0650N R34/0600N FG OVC001 09/09 Q1026

More Conditions Fewer Conditions

10-Day Weather Forecast

Almanac

Astronomy

Sep. 17, 2014 Rise Set
Actual Time 6:18 AM CEST 7:06 PM CEST
Civil Twilight 5:33 AM CEST 7:51 PM CEST
Nautical Twilight 4:37 AM CEST 8:47 PM CEST
Astronomical Twilight 3:32 AM CEST 9:51 PM CEST
Moon 11:41 PM CEST 4:20 PM CEST
Length of Visible Light 14h 18m
Length of Day
12h 47m
Tomorrow will be 5m 55s shorter.
Last Quarter, 39% of the Moon is Illuminated
Today
Last Quarter
Sep 24
New
Oct 1
First Quarter
Oct 8
Full
Oct 15
Last Quarter

Yesterday's Extremes

Country Highs Country Lows

Community

WunderPhotos

Upload Photos

1,753,970 photos uploaded!

Nearby

Snow Depth

Not available.

Earthquake Activity

City Distance Mag. Time & Date
No recent earthquake activity has been reported nearby.
Minimum magnitude displayed is 2.5.

Coastal Water Temperatures

Place Temperature
No Stations Reporting

Nearby Weather Stations